createdAt,value
2022-09-30T00:01:09.545Z,94745.53
2022-09-30T00:03:39.411Z,94752.56
2022-09-30T00:06:08.681Z,94759.06
2022-09-30T00:08:37.945Z,94759.00
2022-09-30T00:11:08.207Z,94777.00
2022-09-30T00:13:37.045Z,94774.28
2022-09-30T00:16:05.037Z,94767.69
2022-09-30T00:18:32.346Z,94765.03
2022-09-30T00:20:59.920Z,94771.44
2022-09-30T00:23:26.757Z,94778.91
2022-09-30T00:26:02.391Z,94769.66
2022-09-30T00:28:30.593Z,94767.09
2022-09-30T00:31:01.991Z,94779.34
2022-09-30T00:33:29.372Z,94769.44
2022-09-30T00:35:56.186Z,94787.69
2022-09-30T00:38:23.404Z,94776.19
2022-09-30T00:40:51.614Z,94770.78
2022-09-30T00:43:21.527Z,94759.50
2022-09-30T00:45:56.844Z,94765.56
2022-09-30T00:48:35.560Z,94763.41
2022-09-30T00:51:03.671Z,94759.56
2022-09-30T00:53:35.601Z,94764.22
2022-09-30T00:56:07.836Z,94756.53
2022-09-30T00:58:44.007Z,94755.81
2022-09-30T01:01:11.733Z,94775.53
2022-09-30T01:03:45.306Z,94766.31
2022-09-30T01:06:12.432Z,94777.75
2022-09-30T01:08:40.417Z,94756.47
2022-09-30T01:11:08.392Z,94756.09
2022-09-30T01:13:39.280Z,94756.72
2022-09-30T01:16:15.986Z,94751.34
2022-09-30T01:19:16.924Z,94750.00
2022-09-30T01:22:03.238Z,94757.13
2022-09-30T01:24:48.606Z,94764.72
2022-09-30T01:27:39.527Z,94765.19
2022-09-30T01:30:15.184Z,94767.66
2022-09-30T01:33:03.966Z,94755.19
2022-09-30T01:35:58.989Z,94769.34
2022-09-30T01:38:36.413Z,94759.91
2022-09-30T01:41:17.016Z,94761.44
2022-09-30T01:44:10.290Z,94772.06
2022-09-30T01:46:38.549Z,94773.78
2022-09-30T01:49:20.548Z,94766.31
2022-09-30T01:52:33.502Z,94758.19
2022-09-30T01:55:17.913Z,94773.78
2022-09-30T01:58:07.274Z,94757.25
2022-09-30T02:00:39.871Z,94771.81
2022-09-30T02:03:19.080Z,94755.19
2022-09-30T02:05:56.059Z,94761.56
2022-09-30T02:08:52.190Z,94767.59
2022-09-30T02:11:32.777Z,94773.25
2022-09-30T02:13:59.604Z,94768.94
2022-09-30T02:16:32.548Z,94775.03
2022-09-30T02:19:23.333Z,94780.91
2022-09-30T02:22:03.768Z,94773.84
2022-09-30T02:24:39.325Z,94778.97
2022-09-30T02:27:14.704Z,94780.09
2022-09-30T02:29:49.743Z,94787.91
2022-09-30T02:32:40.906Z,94797.69
2022-09-30T02:35:12.170Z,94786.75
2022-09-30T02:37:48.269Z,94796.13
2022-09-30T02:40:42.256Z,94784.06
2022-09-30T02:43:10.468Z,94780.97
2022-09-30T02:45:44.307Z,94771.03
2022-09-30T02:48:19.230Z,94773.91
2022-09-30T02:50:46.023Z,94780.72
2022-09-30T02:53:29.447Z,94777.97
2022-09-30T02:56:17.321Z,94784.81
2022-09-30T02:58:46.029Z,94788.44
2022-09-30T03:01:15.608Z,94783.13
2022-09-30T03:03:47.819Z,94791.06
2022-09-30T03:06:15.244Z,94794.97
2022-09-30T03:08:42.572Z,94797.06
2022-09-30T03:11:19.535Z,94796.53
2022-09-30T03:13:52.178Z,94803.72
2022-09-30T03:16:31.020Z,94810.56
2022-09-30T03:19:23.189Z,94803.34
2022-09-30T03:22:06.241Z,94803.00
2022-09-30T03:24:52.161Z,94806.00
2022-09-30T03:27:24.855Z,94803.00
2022-09-30T03:29:57.447Z,94798.75
2022-09-30T03:32:42.350Z,94795.56
2022-09-30T03:35:27.518Z,94800.28
2022-09-30T03:38:33.588Z,94796.91
2022-09-30T03:41:12.203Z,94803.91
2022-09-30T03:44:06.955Z,94805.41
2022-09-30T03:46:42.075Z,94806.00
2022-09-30T03:49:13.715Z,94803.72
2022-09-30T03:51:41.864Z,94813.88
2022-09-30T03:54:11.429Z,94827.38
2022-09-30T03:56:43.336Z,94819.78
2022-09-30T03:59:26.064Z,94812.94
2022-09-30T04:01:53.793Z,94832.97
2022-09-30T04:04:21.023Z,94820.41
2022-09-30T04:06:48.103Z,94830.16
2022-09-30T04:09:15.148Z,94829.19
2022-09-30T04:11:42.797Z,94829.53
2022-09-30T04:14:09.737Z,94814.97
2022-09-30T04:16:36.762Z,94818.66
2022-09-30T04:19:03.852Z,94825.50
2022-09-30T04:21:31.050Z,94837.09
2022-09-30T04:23:57.814Z,94822.22
2022-09-30T04:26:24.742Z,94821.69
2022-09-30T04:28:52.578Z,94818.84
2022-09-30T04:31:20.725Z,94822.94
2022-09-30T04:33:47.720Z,94827.75
2022-09-30T04:36:14.776Z,94838.69
2022-09-30T04:38:41.759Z,94838.22
2022-09-30T04:41:14.072Z,94850.56
2022-09-30T04:43:45.112Z,94838.66
2022-09-30T04:46:12.651Z,94848.13
2022-09-30T04:48:39.479Z,94859.53
2022-09-30T04:51:06.535Z,94856.22
2022-09-30T04:53:34.377Z,94861.13
2022-09-30T04:56:01.772Z,94883.63
2022-09-30T04:58:33.374Z,94870.41
2022-09-30T05:01:06.037Z,94870.84
2022-09-30T05:03:34.253Z,94889.16
2022-09-30T05:06:01.568Z,94889.88
2022-09-30T05:08:28.355Z,94887.38
2022-09-30T05:11:00.661Z,94868.09
2022-09-30T05:13:32.973Z,94864.63
2022-09-30T05:16:00.418Z,94865.59
2022-09-30T05:18:27.387Z,94879.03
2022-09-30T05:20:55.531Z,94888.47
2022-09-30T05:23:22.305Z,94897.47
2022-09-30T05:25:49.062Z,94898.03
2022-09-30T05:28:16.137Z,94900.78
2022-09-30T05:30:43.650Z,94903.59
2022-09-30T05:33:12.163Z,94899.28
2022-09-30T05:35:43.075Z,94894.91
2022-09-30T05:38:11.020Z,94902.75
2022-09-30T05:40:40.941Z,94897.88
2022-09-30T05:43:07.852Z,94909.53
2022-09-30T05:45:34.877Z,94919.88
2022-09-30T05:48:02.627Z,94932.38
2022-09-30T05:50:29.542Z,94930.41
2022-09-30T05:52:57.497Z,94933.34
2022-09-30T05:55:24.771Z,94932.19
2022-09-30T05:57:52.900Z,94934.91
2022-09-30T06:00:20.548Z,94933.81
2022-09-30T06:02:52.023Z,94934.31
2022-09-30T06:05:19.050Z,94944.56
2022-09-30T06:07:45.968Z,94942.09
2022-09-30T06:10:12.952Z,94941.78
2022-09-30T06:12:39.894Z,94943.81
2022-09-30T06:15:07.206Z,94943.94
2022-09-30T06:17:34.683Z,94947.72
2022-09-30T06:20:02.427Z,94954.25
2022-09-30T06:22:29.236Z,94938.00
2022-09-30T06:24:57.267Z,94938.34
2022-09-30T06:27:25.211Z,94943.94
2022-09-30T06:29:51.998Z,94948.31
2022-09-30T06:32:18.936Z,94950.03
2022-09-30T06:34:45.865Z,94974.31
2022-09-30T06:37:13.836Z,94957.31
2022-09-30T06:39:41.782Z,94955.78
2022-09-30T06:42:10.178Z,94947.78
2022-09-30T06:44:49.195Z,94957.00
2022-09-30T06:47:25.114Z,94967.28
2022-09-30T06:49:53.248Z,94971.34
2022-09-30T06:52:20.279Z,94969.63
2022-09-30T06:54:49.770Z,94983.03
2022-09-30T06:57:22.346Z,94985.09
2022-09-30T06:59:50.031Z,94990.97
2022-09-30T07:02:17.323Z,94992.41
2022-09-30T07:04:44.131Z,94999.72
2022-09-30T07:07:11.256Z,95002.44
2022-09-30T07:09:38.564Z,94995.56
2022-09-30T07:12:07.409Z,95007.41
2022-09-30T07:14:35.942Z,95008.53
2022-09-30T07:17:04.677Z,95007.09
2022-09-30T07:19:34.206Z,95012.09
2022-09-30T07:22:21.800Z,95014.06
2022-09-30T07:24:49.517Z,95017.75
2022-09-30T07:27:16.547Z,95008.66
2022-09-30T07:30:07.788Z,95015.56
2022-09-30T07:32:32.036Z,95023.56
2022-09-30T07:34:58.843Z,95022.22
2022-09-30T07:37:26.375Z,95033.59
2022-09-30T07:39:54.140Z,95028.84
2022-09-30T07:42:22.961Z,95032.63
2022-09-30T07:44:52.150Z,95027.56
2022-09-30T07:47:20.315Z,95021.25
2022-09-30T07:49:47.776Z,95027.75
2022-09-30T07:52:15.037Z,95025.16
2022-09-30T07:54:48.053Z,95028.59
2022-09-30T07:57:15.226Z,95019.41
2022-09-30T07:59:42.273Z,95024.41
2022-09-30T08:02:14.982Z,95025.13
2022-09-30T08:04:44.242Z,95026.41
2022-09-30T08:07:12.734Z,95037.91
2022-09-30T08:09:39.715Z,95030.38
2022-09-30T08:12:06.593Z,95041.44
2022-09-30T08:14:33.826Z,95045.16
2022-09-30T08:17:01.461Z,95030.84
2022-09-30T08:19:30.182Z,95044.78
2022-09-30T08:21:57.720Z,95032.97
2022-09-30T08:24:26.751Z,95046.50
2022-09-30T08:26:54.521Z,95051.31
2022-09-30T08:29:42.749Z,95052.59
2022-09-30T08:32:08.990Z,95056.72
2022-09-30T08:34:36.084Z,95050.88
2022-09-30T08:37:08.632Z,95039.66
2022-09-30T08:39:37.917Z,95045.81
2022-09-30T08:42:49.684Z,95047.19
2022-09-30T08:46:05.775Z,95046.72
2022-09-30T08:48:45.547Z,95052.44
2022-09-30T08:51:30.667Z,95054.25
2022-09-30T08:54:00.457Z,95057.53
2022-09-30T08:56:30.733Z,95050.34
2022-09-30T08:59:15.997Z,95068.53
2022-09-30T09:01:49.801Z,95066.00
2022-09-30T09:04:18.444Z,95063.94
2022-09-30T09:06:58.619Z,95073.13
2022-09-30T09:09:58.930Z,95067.72
2022-09-30T09:13:05.432Z,95067.72
2022-09-30T09:15:38.551Z,95072.94
2022-09-30T09:18:25.832Z,95071.06
2022-09-30T09:20:58.134Z,95068.75
2022-09-30T09:23:31.277Z,95067.88
2022-09-30T09:25:58.815Z,95071.28
2022-09-30T09:28:29.429Z,95076.16
2022-09-30T09:30:58.968Z,95083.06
2022-09-30T09:33:30.861Z,95078.69
2022-09-30T09:36:13.888Z,95073.88
2022-09-30T09:39:05.358Z,95079.59
2022-09-30T09:41:47.093Z,95075.84
2022-09-30T09:44:34.036Z,95074.03
2022-09-30T09:47:17.390Z,95068.59
2022-09-30T09:49:57.656Z,95058.88
2022-09-30T09:52:37.071Z,95070.91
2022-09-30T09:55:04.149Z,95057.97
2022-09-30T09:57:33.765Z,95057.97
2022-09-30T10:00:24.879Z,95061.72
2022-09-30T10:03:12.303Z,95071.00
2022-09-30T10:05:39.982Z,95065.22
2022-09-30T10:08:09.847Z,95074.69
2022-09-30T10:10:49.680Z,95067.84
2022-09-30T10:13:18.944Z,95057.25
2022-09-30T10:15:46.777Z,95058.47
2022-09-30T10:18:24.056Z,95055.97
2022-09-30T10:20:54.585Z,95057.13
2022-09-30T10:23:40.530Z,95052.13
2022-09-30T10:26:19.006Z,95049.19
2022-09-30T10:28:55.038Z,95054.84
2022-09-30T10:31:21.911Z,95047.97
2022-09-30T10:33:59.884Z,95038.19
2022-09-30T10:36:36.563Z,95039.00
2022-09-30T10:39:25.206Z,95031.72
2022-09-30T10:42:11.191Z,95037.41
2022-09-30T10:45:04.482Z,95039.81
2022-09-30T10:47:36.575Z,95035.88
2022-09-30T10:50:13.172Z,95030.97
2022-09-30T10:52:50.378Z,95040.47
2022-09-30T10:55:20.063Z,95037.56
2022-09-30T10:57:50.060Z,95038.66
2022-09-30T11:00:22.079Z,95039.06
2022-09-30T11:03:00.118Z,95036.00
2022-09-30T11:05:36.005Z,95042.06
2022-09-30T11:08:14.405Z,95038.16
2022-09-30T11:11:08.836Z,95041.09
2022-09-30T11:14:07.418Z,95040.44
2022-09-30T11:17:08.652Z,95044.66
2022-09-30T11:19:48.582Z,95036.25
2022-09-30T11:22:24.073Z,95044.69
2022-09-30T11:24:53.503Z,95045.38
2022-09-30T11:27:35.081Z,95033.91
2022-09-30T11:30:10.774Z,95043.84
2022-09-30T11:32:49.591Z,95039.34
2022-09-30T11:35:47.226Z,95030.81
2022-09-30T11:38:44.296Z,95044.69
2022-09-30T11:41:19.851Z,95033.22
2022-09-30T11:44:19.410Z,95046.00
2022-09-30T11:47:03.239Z,95037.84
2022-09-30T11:50:05.982Z,95047.19
2022-09-30T11:52:35.646Z,95045.25
2022-09-30T11:55:15.528Z,95038.66
2022-09-30T11:58:12.014Z,95042.53
2022-09-30T12:00:49.748Z,95035.53
2022-09-30T12:03:27.244Z,95021.63
2022-09-30T12:06:10.413Z,95042.16
2022-09-30T12:08:58.044Z,95037.88
2022-09-30T12:11:32.595Z,95041.75
2022-09-30T12:14:05.492Z,95041.31
2022-09-30T12:16:34.694Z,95030.91
2022-09-30T12:19:39.995Z,95041.38
2022-09-30T12:22:14.362Z,95038.25
2022-09-30T12:24:44.871Z,95049.50
2022-09-30T12:27:42.900Z,95044.47
2022-09-30T12:30:20.452Z,95051.00
2022-09-30T12:33:29.816Z,95053.72
2022-09-30T12:36:27.529Z,95056.66
2022-09-30T12:39:15.949Z,95059.53
2022-09-30T12:41:57.991Z,95058.66
2022-09-30T12:44:34.051Z,95057.56
2022-09-30T12:47:06.715Z,95056.47
2022-09-30T12:49:37.580Z,95056.41
2022-09-30T12:52:12.491Z,95051.00
2022-09-30T12:54:47.690Z,95041.31
2022-09-30T12:57:21.255Z,95048.75
2022-09-30T12:59:53.768Z,95051.03
2022-09-30T13:02:42.225Z,95044.00
2022-09-30T13:05:27.200Z,95049.84
2022-09-30T13:08:06.291Z,95036.75
2022-09-30T13:10:34.624Z,95047.72
2022-09-30T13:13:10.381Z,95051.88
2022-09-30T13:15:37.411Z,95049.50
2022-09-30T13:18:26.879Z,95052.94
2022-09-30T13:21:06.737Z,95046.81
2022-09-30T13:23:56.639Z,95055.72
2022-09-30T13:26:26.378Z,95052.22
2022-09-30T13:29:19.691Z,95050.97
2022-09-30T13:31:49.592Z,95049.66
2022-09-30T13:34:24.836Z,95051.59
2022-09-30T13:36:51.638Z,95052.25
2022-09-30T13:39:27.555Z,95056.38
2022-09-30T13:42:32.895Z,95068.88
2022-09-30T13:45:04.621Z,95053.00
2022-09-30T13:47:44.656Z,95058.66
2022-09-30T13:50:34.159Z,95051.13
2022-09-30T13:53:05.702Z,95056.94
2022-09-30T13:55:41.572Z,95050.56
2022-09-30T13:58:30.919Z,95065.38
2022-09-30T14:01:26.197Z,95068.81
2022-09-30T14:04:34.784Z,95065.09
2022-09-30T14:07:26.199Z,95069.03
2022-09-30T14:10:20.221Z,95063.78
2022-09-30T14:13:05.912Z,95069.44
2022-09-30T14:16:06.425Z,95070.13
2022-09-30T14:18:52.010Z,95079.69
2022-09-30T14:21:59.123Z,95085.84
2022-09-30T14:24:37.381Z,95096.00
2022-09-30T14:27:31.619Z,95092.91
2022-09-30T14:30:19.417Z,95090.59
2022-09-30T14:32:58.465Z,95088.13
2022-09-30T14:38:23.256Z,95099.09
2022-09-30T14:40:53.181Z,95098.59
2022-09-30T14:43:24.236Z,95099.03
2022-09-30T14:45:55.591Z,95104.44
2022-09-30T14:48:29.465Z,95099.78
2022-09-30T14:51:08.220Z,95095.94
2022-09-30T14:53:39.291Z,95100.44
2022-09-30T14:56:23.586Z,95109.16
2022-09-30T14:58:52.939Z,95112.91
2022-09-30T15:01:25.877Z,95111.41
2022-09-30T15:03:56.910Z,95113.88
2022-09-30T15:06:28.374Z,95103.06
2022-09-30T15:09:05.065Z,95115.69
2022-09-30T15:11:39.359Z,95121.19
2022-09-30T15:14:15.058Z,95122.69
2022-09-30T15:16:50.556Z,95117.75
2022-09-30T15:19:28.901Z,95124.84
2022-09-30T15:22:02.296Z,95115.88
2022-09-30T15:24:32.707Z,95116.19
2022-09-30T15:27:01.208Z,95127.97
2022-09-30T15:29:28.546Z,95132.09
2022-09-30T15:32:18.540Z,95129.69
2022-09-30T15:34:46.006Z,95141.69
2022-09-30T15:37:23.105Z,95139.53
2022-09-30T15:40:09.811Z,95147.22
2022-09-30T15:42:44.019Z,95152.91
2022-09-30T15:45:18.086Z,95154.31
2022-09-30T15:47:57.975Z,95160.13
2022-09-30T15:50:42.544Z,95166.91
2022-09-30T15:53:24.211Z,95164.13
2022-09-30T15:56:18.946Z,95169.31
2022-09-30T15:59:02.117Z,95180.00
2022-09-30T16:01:36.032Z,95178.44
2022-09-30T16:04:10.882Z,95180.81
2022-09-30T16:06:46.480Z,95189.38
2022-09-30T16:09:20.318Z,95191.28
2022-09-30T16:11:59.275Z,95202.00
2022-09-30T16:14:54.292Z,95207.81
2022-09-30T16:17:48.558Z,95206.56
2022-09-30T16:20:15.489Z,95210.16
2022-09-30T16:22:42.253Z,95201.34
2022-09-30T16:25:28.025Z,95208.13
2022-09-30T16:28:14.787Z,95210.22
2022-09-30T16:30:44.684Z,95217.63
2022-09-30T16:33:13.980Z,95222.88
2022-09-30T16:35:45.307Z,95219.31
2022-09-30T16:38:14.475Z,95221.63
2022-09-30T16:40:41.560Z,95222.78
2022-09-30T16:43:11.757Z,95221.00
2022-09-30T16:45:44.013Z,95217.78
2022-09-30T16:48:21.553Z,95223.06
2022-09-30T16:51:03.716Z,95233.88
2022-09-30T16:53:30.823Z,95238.41
2022-09-30T16:55:57.572Z,95239.69
2022-09-30T16:58:24.596Z,95249.91
2022-09-30T17:00:51.740Z,95246.34
2022-09-30T17:03:21.570Z,95242.06
2022-09-30T17:05:53.200Z,95248.59
2022-09-30T17:08:21.248Z,95254.44
2022-09-30T17:10:50.149Z,95241.59
2022-09-30T17:13:18.631Z,95247.59
2022-09-30T17:15:51.862Z,95247.03
2022-09-30T17:18:19.664Z,95241.28
2022-09-30T17:20:52.722Z,95248.44
2022-09-30T17:23:21.425Z,95244.25
2022-09-30T17:25:49.407Z,95251.41
2022-09-30T17:28:17.024Z,95248.00
2022-09-30T17:30:46.779Z,95244.31
2022-09-30T17:33:14.396Z,95242.06
2022-09-30T17:35:41.496Z,95235.88
2022-09-30T17:38:10.190Z,95248.28
2022-09-30T17:40:55.744Z,95247.91
2022-09-30T17:43:22.857Z,95255.22
2022-09-30T17:45:55.665Z,95257.50
2022-09-30T17:48:22.579Z,95259.72
2022-09-30T17:50:49.425Z,95270.97
2022-09-30T17:53:18.105Z,95277.53
2022-09-30T17:55:49.985Z,95284.66
2022-09-30T17:58:17.977Z,95278.81
2022-09-30T18:00:46.837Z,95287.66
2022-09-30T18:03:13.992Z,95291.41
2022-09-30T18:05:40.847Z,95287.25
2022-09-30T18:08:07.719Z,95295.28
2022-09-30T18:10:37.113Z,95304.06
2022-09-30T18:13:04.167Z,95311.31
2022-09-30T18:15:31.157Z,95308.19
2022-09-30T18:17:58.204Z,95308.69
2022-09-30T18:20:25.710Z,95320.66
2022-09-30T18:22:52.932Z,95329.88
2022-09-30T18:25:20.042Z,95329.84
2022-09-30T18:27:48.761Z,95302.94
2022-09-30T18:30:15.798Z,95312.06
2022-09-30T18:32:42.832Z,95310.31
2022-09-30T18:35:13.158Z,95320.97
2022-09-30T18:37:42.359Z,95324.84
2022-09-30T18:40:09.874Z,95328.25
2022-09-30T18:42:38.101Z,95320.25
2022-09-30T18:45:06.064Z,95331.00
2022-09-30T18:47:33.076Z,95342.47
2022-09-30T18:49:59.850Z,95350.47
2022-09-30T18:52:26.927Z,95330.25
2022-09-30T18:54:54.369Z,95330.16
2022-09-30T18:57:21.096Z,95331.50
2022-09-30T18:59:47.999Z,95335.41
2022-09-30T19:02:18.253Z,95337.44
2022-09-30T19:04:46.620Z,95345.09
2022-09-30T19:07:13.366Z,95346.50
2022-09-30T19:09:41.285Z,95354.72
2022-09-30T19:12:08.029Z,95361.22
2022-09-30T19:14:36.745Z,95356.59
2022-09-30T19:17:04.215Z,95353.16
2022-09-30T19:19:32.368Z,95355.63
2022-09-30T19:22:01.319Z,95354.16
2022-09-30T19:24:28.202Z,95342.97
2022-09-30T19:26:54.878Z,95347.13
2022-09-30T19:29:22.327Z,95342.72
2022-09-30T19:31:51.473Z,95352.13
2022-09-30T19:34:29.924Z,95350.53
2022-09-30T19:36:59.818Z,95358.56
2022-09-30T19:39:36.719Z,95357.94
2022-09-30T19:42:06.597Z,95372.69
2022-09-30T19:44:35.876Z,95364.78
2022-09-30T19:47:02.780Z,95368.03
2022-09-30T19:49:30.800Z,95355.84
2022-09-30T19:51:57.632Z,95353.28
2022-09-30T19:54:37.574Z,95352.81
2022-09-30T19:57:07.265Z,95361.66
2022-09-30T19:59:34.145Z,95363.19
2022-09-30T20:02:01.325Z,95355.63
2022-09-30T20:04:29.584Z,95354.59
2022-09-30T20:06:56.492Z,95362.44
2022-09-30T20:09:24.251Z,95352.72
2022-09-30T20:11:51.544Z,95361.75
2022-09-30T20:14:36.815Z,95371.59
2022-09-30T20:17:03.828Z,95361.91
2022-09-30T20:19:31.614Z,95364.56
2022-09-30T20:21:58.533Z,95347.66
2022-09-30T20:24:26.168Z,95366.94
2022-09-30T20:26:53.025Z,95381.31
2022-09-30T20:29:22.586Z,95392.25
2022-09-30T20:31:50.669Z,95385.75
2022-09-30T20:34:18.949Z,95386.59
2022-09-30T20:36:45.800Z,95381.63
2022-09-30T20:39:12.951Z,95383.91
2022-09-30T20:41:46.135Z,95380.13
2022-09-30T20:44:13.715Z,95377.56
2022-09-30T20:46:41.964Z,95374.94
2022-09-30T20:49:09.566Z,95384.78
2022-09-30T20:51:36.510Z,95378.44
2022-09-30T20:54:03.609Z,95368.31
2022-09-30T20:56:44.479Z,95389.19
2022-09-30T20:59:17.924Z,95384.31
2022-09-30T21:01:44.728Z,95387.59
2022-09-30T21:04:12.877Z,95398.78
2022-09-30T21:06:39.681Z,95403.19
2022-09-30T21:09:11.401Z,95404.09
2022-09-30T21:11:42.507Z,95408.00
2022-09-30T21:14:09.496Z,95410.03
2022-09-30T21:16:36.254Z,95410.97
2022-09-30T21:19:03.259Z,95403.22
2022-09-30T21:21:30.153Z,95404.63
2022-09-30T21:23:58.721Z,95415.63
2022-09-30T21:26:28.204Z,95406.28
2022-09-30T21:28:55.125Z,95414.25
2022-09-30T21:31:29.200Z,95389.00
2022-09-30T21:34:00.840Z,95415.59
2022-09-30T21:36:28.383Z,95400.84
2022-09-30T21:39:01.387Z,95418.03
2022-09-30T21:41:28.706Z,95410.63
2022-09-30T21:43:55.899Z,95415.59
2022-09-30T21:46:23.381Z,95419.00
2022-09-30T21:48:50.672Z,95441.56
2022-09-30T21:51:20.340Z,95433.75
2022-09-30T21:53:48.793Z,95433.88
2022-09-30T21:56:15.500Z,95435.81
2022-09-30T21:58:42.340Z,95442.69
2022-09-30T22:01:10.324Z,95446.72
2022-09-30T22:03:40.656Z,95434.09
2022-09-30T22:06:09.224Z,95439.78
2022-09-30T22:08:40.348Z,95436.38
2022-09-30T22:11:16.130Z,95439.53
2022-09-30T22:13:44.653Z,95447.69
2022-09-30T22:16:15.253Z,95446.72
2022-09-30T22:18:43.081Z,95448.94
2022-09-30T22:21:12.526Z,95468.69
2022-09-30T22:23:39.698Z,95470.06
2022-09-30T22:26:25.426Z,95476.63
2022-09-30T22:29:03.504Z,95476.31
2022-09-30T22:31:32.441Z,95480.91
2022-09-30T22:34:20.805Z,95483.56
2022-09-30T22:37:06.857Z,95470.84
2022-09-30T22:39:34.069Z,95470.97
2022-09-30T22:42:01.512Z,95480.59
2022-09-30T22:44:32.883Z,95477.06
2022-09-30T22:47:00.310Z,95457.97
2022-09-30T22:49:37.171Z,95459.22
2022-09-30T22:52:04.078Z,95462.66
2022-09-30T22:54:30.962Z,95461.09
2022-09-30T22:56:59.449Z,95473.97
2022-09-30T22:59:27.153Z,95479.00
2022-09-30T23:01:55.481Z,95458.91
2022-09-30T23:04:22.497Z,95481.84
2022-09-30T23:06:55.333Z,95490.16
2022-09-30T23:09:22.790Z,95481.66
2022-09-30T23:11:53.619Z,95483.25
2022-09-30T23:14:21.643Z,95496.16
2022-09-30T23:16:49.072Z,95499.28
2022-09-30T23:19:15.909Z,95496.44
2022-09-30T23:21:42.838Z,95497.69
2022-09-30T23:24:09.853Z,95489.38
2022-09-30T23:26:37.144Z,95482.78
2022-09-30T23:29:10.342Z,95490.31
2022-09-30T23:31:38.000Z,95501.31
2022-09-30T23:34:05.804Z,95508.56
2022-09-30T23:36:35.612Z,95508.50
2022-09-30T23:39:08.233Z,95504.03
2022-09-30T23:41:35.968Z,95504.44
2022-09-30T23:44:04.351Z,95508.47
2022-09-30T23:46:31.604Z,95495.31
2022-09-30T23:48:58.392Z,95504.09
2022-09-30T23:51:25.252Z,95514.50
2022-09-30T23:53:52.036Z,95511.53
2022-09-30T23:56:19.369Z,95500.31
2022-09-30T23:58:46.861Z,95506.16
